createdAt,value
2023-08-17T00:00:11.230Z,96890.84
2023-08-17T00:02:39.895Z,96884.63
2023-08-17T00:05:09.984Z,96895.81
2023-08-17T00:07:38.218Z,96889.25
2023-08-17T00:10:06.407Z,96885.44
2023-08-17T00:12:34.235Z,96892.03
2023-08-17T00:15:01.848Z,96893.56
2023-08-17T00:17:29.463Z,96887.78
2023-08-17T00:19:57.103Z,96889.31
2023-08-17T00:22:26.251Z,96894.72
2023-08-17T00:24:53.809Z,96885.84
2023-08-17T00:27:21.451Z,96886.22
2023-08-17T00:29:49.119Z,96889.31
2023-08-17T00:32:18.115Z,96890.88
2023-08-17T00:34:46.389Z,96888.56
2023-08-17T00:37:13.987Z,96890.13
2023-08-17T00:39:42.965Z,96882.00
2023-08-17T00:42:11.013Z,96888.94
2023-08-17T00:44:38.642Z,96887.03
2023-08-17T00:47:06.736Z,96893.97
2023-08-17T00:49:35.233Z,96889.72
2023-08-17T00:52:04.207Z,96882.41
2023-08-17T00:54:32.168Z,96880.84
2023-08-17T00:57:01.730Z,96874.66
2023-08-17T00:59:36.387Z,96887.78
2023-08-17T01:02:04.802Z,96891.66
2023-08-17T01:04:33.911Z,96891.25
2023-08-17T01:07:01.497Z,96893.59
2023-08-17T01:09:29.150Z,96891.66
2023-08-17T01:12:07.808Z,96891.69
2023-08-17T01:14:45.534Z,96886.63
2023-08-17T01:17:19.855Z,96889.34
2023-08-17T01:19:48.729Z,96891.63
2023-08-17T01:22:19.115Z,96887.75
2023-08-17T01:24:48.039Z,96892.38
2023-08-17T01:27:15.709Z,96895.88
2023-08-17T01:29:43.616Z,96897.78
2023-08-17T01:32:18.397Z,96894.31
2023-08-17T01:34:54.979Z,96896.63
2023-08-17T01:37:25.395Z,96896.22
2023-08-17T01:39:57.836Z,96897.00
2023-08-17T01:42:26.551Z,96894.66
2023-08-17T01:44:54.563Z,96894.69
2023-08-17T01:47:25.088Z,96907.03
2023-08-17T01:49:52.808Z,96895.06
2023-08-17T01:52:20.441Z,96903.19
2023-08-17T01:54:48.194Z,96897.03
2023-08-17T01:57:17.107Z,96904.75
2023-08-17T01:59:44.666Z,96905.91
2023-08-17T02:02:12.630Z,96898.13
2023-08-17T02:04:40.267Z,96891.56
2023-08-17T02:07:07.881Z,96886.91
2023-08-17T02:09:35.521Z,96891.16
2023-08-17T02:12:03.138Z,96893.09
2023-08-17T02:14:32.131Z,96884.19
2023-08-17T02:16:59.732Z,96884.19
2023-08-17T02:19:27.326Z,96884.59
2023-08-17T02:21:54.953Z,96885.34
2023-08-17T02:24:22.631Z,96891.56
2023-08-17T02:26:50.241Z,96901.59
2023-08-17T02:29:17.898Z,96901.94
2023-08-17T02:31:47.186Z,96899.59
2023-08-17T02:34:14.789Z,96901.16
2023-08-17T02:36:42.359Z,96908.09
2023-08-17T02:39:10.061Z,96907.69
2023-08-17T02:41:37.699Z,96901.16
2023-08-17T02:44:05.792Z,96899.59
2023-08-17T02:46:33.451Z,96894.56
2023-08-17T02:49:02.401Z,96892.25
2023-08-17T02:51:30.020Z,96893.09
2023-08-17T02:53:57.702Z,96897.72
2023-08-17T02:56:25.310Z,96885.38
2023-08-17T02:58:52.939Z,96889.22
2023-08-17T03:01:20.563Z,96895.38
2023-08-17T03:03:48.570Z,96890.66
2023-08-17T03:06:17.588Z,96889.09
2023-08-17T03:08:45.285Z,96886.00
2023-08-17T03:11:13.020Z,96890.22
2023-08-17T03:13:40.670Z,96886.72
2023-08-17T03:16:08.291Z,96882.84
2023-08-17T03:18:35.869Z,96882.44
2023-08-17T03:21:03.439Z,96873.19
2023-08-17T03:23:32.492Z,96880.50
2023-08-17T03:26:00.191Z,96876.63
2023-08-17T03:28:29.418Z,96882.03
2023-08-17T03:30:57.480Z,96877.41
2023-08-17T03:33:25.179Z,96870.44
2023-08-17T03:35:52.846Z,96873.19
2023-08-17T03:38:20.467Z,96873.59
2023-08-17T03:40:49.680Z,96873.59
2023-08-17T03:43:17.316Z,96873.56
2023-08-17T03:45:45.304Z,96872.72
2023-08-17T03:48:13.463Z,96876.56
2023-08-17T03:50:41.222Z,96873.44
2023-08-17T03:53:08.838Z,96879.25
2023-08-17T03:55:36.432Z,96877.31
2023-08-17T03:58:05.599Z,96882.31
2023-08-17T04:00:33.464Z,96875.84
2023-08-17T04:03:01.121Z,96875.47
2023-08-17T04:05:29.511Z,96879.28
2023-08-17T04:07:57.122Z,96882.31
2023-08-17T04:10:24.992Z,96890.75
2023-08-17T04:12:53.214Z,96885.31
2023-08-17T04:15:22.134Z,96885.69
2023-08-17T04:17:49.785Z,96889.16
2023-08-17T04:20:19.182Z,96889.56
2023-08-17T04:22:46.755Z,96890.69
2023-08-17T04:25:14.904Z,96893.38
2023-08-17T04:27:42.512Z,96896.53
2023-08-17T04:30:11.868Z,96893.84
2023-08-17T04:32:40.972Z,96901.19
2023-08-17T04:35:09.303Z,96891.94
2023-08-17T04:37:36.896Z,96884.97
2023-08-17T04:40:06.342Z,96898.50
2023-08-17T04:42:33.917Z,96893.97
2023-08-17T04:45:01.494Z,96891.78
2023-08-17T04:47:30.085Z,96896.09
2023-08-17T04:49:59.080Z,96892.25
2023-08-17T04:52:26.856Z,96893.78
2023-08-17T04:54:54.420Z,96890.28
2023-08-17T04:57:22.067Z,96894.19
2023-08-17T04:59:49.701Z,96900.44
2023-08-17T05:02:17.322Z,96903.56
2023-08-17T05:04:45.020Z,96904.72
2023-08-17T05:07:13.985Z,96919.81
2023-08-17T05:09:41.565Z,96919.09
2023-08-17T05:12:10.029Z,96915.59
2023-08-17T05:14:37.693Z,96912.91
2023-08-17T05:17:05.480Z,96921.41
2023-08-17T05:19:33.202Z,96913.69
2023-08-17T05:22:00.902Z,96918.75
2023-08-17T05:24:29.887Z,96925.31
2023-08-17T05:26:57.667Z,96909.50
2023-08-17T05:29:25.247Z,96911.91
2023-08-17T05:31:52.900Z,96910.00
2023-08-17T05:34:20.489Z,96920.06
2023-08-17T05:36:48.096Z,96916.22
2023-08-17T05:39:15.659Z,96916.97
2023-08-17T05:41:44.641Z,96922.03
2023-08-17T05:44:12.335Z,96919.63
2023-08-17T05:46:40.072Z,96922.97
2023-08-17T05:49:07.802Z,96929.91
2023-08-17T05:51:35.490Z,96929.19
2023-08-17T05:54:03.139Z,96934.22
2023-08-17T05:56:30.890Z,96931.66
2023-08-17T05:58:59.811Z,96928.56
2023-08-17T06:01:27.414Z,96930.59
2023-08-17T06:03:55.000Z,96930.25
2023-08-17T06:06:22.725Z,96930.25
2023-08-17T06:08:50.313Z,96932.53
2023-08-17T06:11:17.970Z,96933.22
2023-08-17T06:13:45.621Z,96936.34
2023-08-17T06:16:14.700Z,96942.97
2023-08-17T06:18:42.712Z,96936.50
2023-08-17T06:21:10.432Z,96934.22
2023-08-17T06:23:38.050Z,96931.09
2023-08-17T06:26:05.677Z,96934.19
2023-08-17T06:28:33.330Z,96933.03
2023-08-17T06:31:01.253Z,96942.69
2023-08-17T06:33:30.276Z,96934.97
2023-08-17T06:35:58.081Z,96942.69
2023-08-17T06:38:25.642Z,96932.28
2023-08-17T06:40:53.682Z,96934.97
2023-08-17T06:43:21.284Z,96934.59
2023-08-17T06:45:48.969Z,96927.25
2023-08-17T06:48:16.663Z,96934.19
2023-08-17T06:50:45.621Z,96940.38
2023-08-17T06:53:13.437Z,96934.97
2023-08-17T06:55:41.104Z,96938.03
2023-08-17T06:58:08.723Z,96939.53
2023-08-17T07:00:36.649Z,96936.41
2023-08-17T07:03:05.267Z,96940.34
2023-08-17T07:05:32.963Z,96941.81
2023-08-17T07:08:02.729Z,96934.38
2023-08-17T07:10:30.364Z,96931.63
2023-08-17T07:12:58.070Z,96936.44
2023-08-17T07:15:25.702Z,96932.13
2023-08-17T07:17:53.719Z,96938.66
2023-08-17T07:20:21.406Z,96942.94
2023-08-17T07:22:49.074Z,96946.75
2023-08-17T07:25:18.165Z,96946.63
2023-08-17T07:27:45.855Z,96942.06
2023-08-17T07:30:14.416Z,96950.00
2023-08-17T07:32:42.165Z,96940.59
2023-08-17T07:35:10.567Z,96946.59
2023-08-17T07:37:38.234Z,96951.44
2023-08-17T07:40:06.951Z,96950.97
2023-08-17T07:42:36.092Z,96949.78
2023-08-17T07:45:05.645Z,96950.00
2023-08-17T07:47:33.301Z,96947.59
2023-08-17T07:50:00.991Z,96956.66
2023-08-17T07:52:28.548Z,96953.22
2023-08-17T07:54:56.249Z,96951.16
2023-08-17T07:57:24.419Z,96955.50
2023-08-17T07:59:54.796Z,96956.50
2023-08-17T08:02:22.426Z,96959.41
2023-08-17T08:04:50.087Z,96962.41
2023-08-17T08:07:17.787Z,96967.97
2023-08-17T08:09:45.398Z,96974.38
2023-08-17T08:12:13.031Z,96968.72
2023-08-17T08:14:40.616Z,96968.56
2023-08-17T08:17:09.598Z,96965.06
2023-08-17T08:19:37.273Z,96964.44
2023-08-17T08:22:04.899Z,96960.78
2023-08-17T08:24:38.330Z,96964.59
2023-08-17T08:27:06.607Z,96964.06
2023-08-17T08:29:34.685Z,96970.56
2023-08-17T08:32:03.922Z,96964.69
2023-08-17T08:34:33.037Z,96965.03
2023-08-17T08:37:00.691Z,96968.69
2023-08-17T08:39:28.620Z,96968.38
2023-08-17T08:41:56.692Z,96966.09
2023-08-17T08:44:24.419Z,96968.38
2023-08-17T08:46:54.714Z,96973.13
2023-08-17T08:49:25.441Z,96967.69
2023-08-17T08:51:54.535Z,96970.75
2023-08-17T08:54:24.200Z,96973.59
2023-08-17T08:56:56.763Z,96970.88
2023-08-17T08:59:27.999Z,96970.41
2023-08-17T09:01:57.478Z,96973.34
2023-08-17T09:04:25.628Z,96970.75
2023-08-17T09:06:56.014Z,96977.50
2023-08-17T09:09:29.429Z,96966.50
2023-08-17T09:11:57.632Z,96972.56
2023-08-17T09:14:25.386Z,96971.91
2023-08-17T09:16:53.151Z,96969.63
2023-08-17T09:19:21.110Z,96967.38
2023-08-17T09:21:51.510Z,96971.78
2023-08-17T09:24:20.669Z,96972.22
2023-08-17T09:26:48.362Z,96975.72
2023-08-17T09:29:20.218Z,96978.00
2023-08-17T09:31:48.168Z,96974.31
2023-08-17T09:34:17.746Z,96969.88
2023-08-17T09:36:48.218Z,96968.25
2023-08-17T09:39:17.680Z,96968.25
2023-08-17T09:41:46.806Z,96972.28
2023-08-17T09:44:14.676Z,96967.56
2023-08-17T09:46:45.941Z,96963.28
2023-08-17T09:49:13.583Z,96973.19
2023-08-17T09:51:44.523Z,96966.84
2023-08-17T09:54:22.061Z,96969.91
2023-08-17T09:56:51.788Z,96967.84
2023-08-17T09:59:19.491Z,96968.25
2023-08-17T10:01:56.806Z,96967.91
2023-08-17T10:04:26.093Z,96967.81
2023-08-17T10:07:00.250Z,96965.69
2023-08-17T10:09:33.353Z,96962.97
2023-08-17T10:12:06.020Z,96963.44
2023-08-17T10:14:38.752Z,96966.34
2023-08-17T10:17:11.381Z,96960.00
2023-08-17T10:19:46.092Z,96960.28
2023-08-17T10:22:19.789Z,96955.88
2023-08-17T10:24:48.452Z,96951.81
2023-08-17T10:27:18.945Z,96945.13
2023-08-17T10:29:47.159Z,96952.97
2023-08-17T10:32:16.953Z,96942.88
2023-08-17T10:34:45.817Z,96934.50
2023-08-17T10:37:14.634Z,96939.59
2023-08-17T10:39:47.230Z,96938.53
2023-08-17T10:42:20.790Z,96940.09
2023-08-17T10:44:50.543Z,96931.03
2023-08-17T10:47:22.513Z,96935.28
2023-08-17T10:49:51.053Z,96938.38
2023-08-17T10:52:28.326Z,96928.53
2023-08-17T10:54:57.027Z,96918.63
2023-08-17T10:57:33.129Z,96928.44
2023-08-17T11:00:22.060Z,96919.19
2023-08-17T11:02:56.651Z,96911.84
2023-08-17T11:05:42.145Z,96905.59
2023-08-17T11:08:11.897Z,96902.22
2023-08-17T11:10:40.166Z,96909.19
2023-08-17T11:13:08.360Z,96914.72
2023-08-17T11:15:44.841Z,96915.13
2023-08-17T11:18:13.730Z,96914.38
2023-08-17T11:20:43.560Z,96906.88
2023-08-17T11:23:12.492Z,96915.56
2023-08-17T11:25:40.553Z,96889.94
2023-08-17T11:28:09.490Z,96892.69
2023-08-17T11:30:39.940Z,96907.03
2023-08-17T11:33:09.730Z,96893.09
2023-08-17T11:35:37.902Z,96897.28
2023-08-17T11:38:08.954Z,96900.22
2023-08-17T11:40:37.543Z,96897.19
2023-08-17T11:43:06.073Z,96899.00
2023-08-17T11:45:34.141Z,96884.66
2023-08-17T11:48:02.510Z,96897.75
2023-08-17T11:50:31.742Z,96905.28
2023-08-17T11:53:01.554Z,96899.53
2023-08-17T11:55:29.975Z,96902.53
2023-08-17T11:57:57.760Z,96907.41
2023-08-17T12:00:26.676Z,96904.06
2023-08-17T12:02:55.228Z,96904.47
2023-08-17T12:05:24.369Z,96899.84
2023-08-17T12:07:55.296Z,96904.25
2023-08-17T12:10:24.395Z,96909.53
2023-08-17T12:12:52.204Z,96912.41
2023-08-17T12:15:20.063Z,96908.25
2023-08-17T12:17:48.544Z,96912.50
2023-08-17T12:20:19.984Z,96909.81
2023-08-17T12:22:47.758Z,96907.38
2023-08-17T12:25:17.238Z,96906.63
2023-08-17T12:27:44.980Z,96909.28
2023-08-17T12:30:14.591Z,96912.34
2023-08-17T12:32:42.267Z,96908.13
2023-08-17T12:35:10.240Z,96915.88
2023-08-17T12:37:37.847Z,96913.81
2023-08-17T12:40:06.260Z,96914.56
2023-08-17T12:42:35.289Z,96907.63
2023-08-17T12:45:05.597Z,96907.28
2023-08-17T12:47:35.351Z,96908.22
2023-08-17T12:50:04.726Z,96910.50
2023-08-17T12:52:32.464Z,96908.28
2023-08-17T12:55:00.207Z,96905.59
2023-08-17T12:57:27.863Z,96904.59
2023-08-17T12:59:56.890Z,96898.47
2023-08-17T13:02:25.935Z,96895.75
2023-08-17T13:04:53.873Z,96893.66
2023-08-17T13:07:21.482Z,96895.78
2023-08-17T13:09:49.102Z,96901.25
2023-08-17T13:12:16.972Z,96900.59
2023-08-17T13:14:44.773Z,96908.03
2023-08-17T13:17:15.565Z,96910.44
2023-08-17T13:19:43.337Z,96902.66
2023-08-17T13:22:11.412Z,96897.66
2023-08-17T13:24:41.056Z,96898.97
2023-08-17T13:27:08.857Z,96894.50
2023-08-17T13:29:39.392Z,96896.56
2023-08-17T13:32:07.232Z,96893.50
2023-08-17T13:34:36.397Z,96895.28
2023-08-17T13:37:04.470Z,96895.84
2023-08-17T13:39:32.160Z,96896.72
2023-08-17T13:41:59.815Z,96883.78
2023-08-17T13:44:27.376Z,96884.31
2023-08-17T13:46:54.956Z,96871.03
2023-08-17T13:49:22.536Z,96881.34
2023-08-17T13:51:51.425Z,96874.78
2023-08-17T13:54:19.912Z,96861.84
2023-08-17T13:56:47.509Z,96869.88
2023-08-17T13:59:15.277Z,96869.78
2023-08-17T14:01:42.899Z,96877.88
2023-08-17T14:04:12.530Z,96869.88
2023-08-17T14:06:40.893Z,96876.13
2023-08-17T14:09:09.789Z,96873.69
2023-08-17T14:11:37.432Z,96861.75
2023-08-17T14:14:05.177Z,96862.63
2023-08-17T14:16:33.123Z,96873.63
2023-08-17T14:19:00.837Z,96873.03
2023-08-17T14:21:28.377Z,96874.59
2023-08-17T14:23:55.968Z,96875.88
2023-08-17T14:26:24.848Z,96868.97
2023-08-17T14:28:52.390Z,96871.34
2023-08-17T14:31:20.564Z,96875.84
2023-08-17T14:33:48.982Z,96873.47
2023-08-17T14:38:47.314Z,96878.53
2023-08-17T14:41:14.913Z,96883.75
2023-08-17T14:43:43.831Z,96883.94
2023-08-17T14:48:42.208Z,96879.53
2023-08-17T14:51:09.958Z,96879.88
2023-08-17T14:53:40.166Z,96885.53
2023-08-17T14:56:08.012Z,96876.53
2023-08-17T14:58:35.599Z,96881.72
2023-08-17T15:01:05.212Z,96876.84
2023-08-17T15:03:32.966Z,96881.63
2023-08-17T15:06:00.831Z,96873.81
2023-08-17T15:08:28.455Z,96877.59
2023-08-17T15:10:56.063Z,96879.38
2023-08-17T15:13:23.800Z,96879.69
2023-08-17T15:15:51.711Z,96890.41
2023-08-17T15:18:22.854Z,96893.13
2023-08-17T15:20:51.300Z,96902.63
2023-08-17T15:23:19.258Z,96904.19
2023-08-17T15:25:46.891Z,96896.81
2023-08-17T15:28:14.474Z,96901.56
2023-08-17T15:30:42.010Z,96901.59
2023-08-17T15:33:10.769Z,96899.78
2023-08-17T15:35:39.777Z,96896.34
2023-08-17T15:38:07.364Z,96892.13
2023-08-17T15:40:34.975Z,96884.84
2023-08-17T15:43:02.539Z,96882.00
2023-08-17T15:45:30.122Z,96884.59
2023-08-17T15:47:57.717Z,96885.44
2023-08-17T15:50:25.368Z,96887.44
2023-08-17T15:52:54.275Z,96883.41
2023-08-17T15:55:21.859Z,96870.31
2023-08-17T15:57:50.964Z,96879.38
2023-08-17T16:00:19.387Z,96867.31
2023-08-17T16:02:47.433Z,96866.34
2023-08-17T16:05:15.151Z,96866.72
2023-08-17T16:07:42.702Z,96853.50
2023-08-17T16:10:12.054Z,96847.03
2023-08-17T16:12:42.990Z,96846.72
2023-08-17T16:15:11.994Z,96847.16
2023-08-17T16:17:39.713Z,96846.06
2023-08-17T16:20:08.990Z,96844.06
2023-08-17T16:22:36.917Z,96846.91
2023-08-17T16:25:05.103Z,96842.41
2023-08-17T16:27:38.853Z,96852.53
2023-08-17T16:30:08.287Z,96842.09
2023-08-17T16:32:36.032Z,96844.81
2023-08-17T16:35:04.062Z,96842.47
2023-08-17T16:37:31.828Z,96836.63
2023-08-17T16:39:59.373Z,96835.66
2023-08-17T16:42:27.034Z,96836.31
2023-08-17T16:44:56.046Z,96830.34
2023-08-17T16:47:27.546Z,96837.91
2023-08-17T16:49:56.233Z,96833.84
2023-08-17T16:52:24.993Z,96830.56
2023-08-17T16:54:52.626Z,96843.56
2023-08-17T16:57:20.317Z,96830.66
2023-08-17T16:59:47.859Z,96843.41
2023-08-17T17:02:16.808Z,96849.66
2023-08-17T17:04:44.983Z,96850.16
2023-08-17T17:07:12.580Z,96852.25
2023-08-17T17:09:40.111Z,96851.47
2023-08-17T17:12:08.508Z,96848.78
2023-08-17T17:14:36.237Z,96848.38
2023-08-17T17:17:04.174Z,96840.97
2023-08-17T17:19:33.292Z,96843.72
2023-08-17T17:22:00.859Z,96846.19
2023-08-17T17:24:28.417Z,96837.63
2023-08-17T17:26:55.975Z,96835.03
2023-08-17T17:29:23.545Z,96837.88
2023-08-17T17:31:51.935Z,96840.63
2023-08-17T17:34:20.728Z,96847.56
2023-08-17T17:36:50.300Z,96847.63
2023-08-17T17:39:17.979Z,96854.75
2023-08-17T17:41:45.547Z,96857.03
2023-08-17T17:44:13.145Z,96868.38
2023-08-17T17:46:40.743Z,96869.91
2023-08-17T17:49:08.396Z,96867.75
2023-08-17T17:51:35.962Z,96872.66
2023-08-17T17:54:05.339Z,96869.81
2023-08-17T17:56:40.410Z,96869.50
2023-08-17T17:59:10.994Z,96859.28
2023-08-17T18:01:38.980Z,96870.16
2023-08-17T18:04:06.938Z,96870.03
2023-08-17T18:06:35.215Z,96860.09
2023-08-17T18:09:03.340Z,96866.88
2023-08-17T18:11:32.485Z,96863.50
2023-08-17T18:14:00.046Z,96864.97
2023-08-17T18:16:27.718Z,96863.16
2023-08-17T18:18:55.369Z,96860.34
2023-08-17T18:21:22.910Z,96854.47
2023-08-17T18:23:51.345Z,96862.97
2023-08-17T18:26:18.905Z,96867.44
2023-08-17T18:28:47.852Z,96853.25
2023-08-17T18:31:15.467Z,96859.31
2023-08-17T18:33:43.203Z,96865.06
2023-08-17T18:36:10.769Z,96853.69
2023-08-17T18:38:38.346Z,96849.94
2023-08-17T18:41:09.859Z,96846.59
2023-08-17T18:43:37.821Z,96850.25
2023-08-17T18:46:07.540Z,96850.25
2023-08-17T18:48:35.310Z,96850.38
2023-08-17T18:51:02.984Z,96846.47
2023-08-17T18:53:30.568Z,96855.28
2023-08-17T18:55:58.211Z,96858.31
2023-08-17T18:58:26.560Z,96868.25
2023-08-17T19:00:54.275Z,96861.13
2023-08-17T19:03:23.399Z,96863.56
2023-08-17T19:05:51.135Z,96863.69
2023-08-17T19:08:18.680Z,96875.78
2023-08-17T19:10:46.258Z,96875.78
2023-08-17T19:13:13.806Z,96878.09
2023-08-17T19:15:41.850Z,96876.94
2023-08-17T19:18:10.497Z,96884.69
2023-08-17T19:20:39.748Z,96875.44
2023-08-17T19:23:07.720Z,96880.81
2023-08-17T19:25:35.351Z,96890.13
2023-08-17T19:28:03.014Z,96883.53
2023-08-17T19:30:30.623Z,96894.72
2023-08-17T19:32:59.451Z,96898.53
2023-08-17T19:35:27.682Z,96901.28
2023-08-17T19:37:57.129Z,96894.66
2023-08-17T19:40:25.000Z,96893.06
2023-08-17T19:42:52.677Z,96893.84
2023-08-17T19:45:20.337Z,96901.63
2023-08-17T19:47:48.223Z,96899.38
2023-08-17T19:50:16.310Z,96905.94
2023-08-17T19:52:44.017Z,96896.66
2023-08-17T19:55:14.475Z,96890.09
2023-08-17T19:57:42.409Z,96891.66
2023-08-17T20:00:12.343Z,96880.81
2023-08-17T20:02:40.061Z,96884.31
2023-08-17T20:05:09.682Z,96875.00
2023-08-17T20:07:37.711Z,96881.59
2023-08-17T20:10:06.573Z,96877.31
2023-08-17T20:12:35.537Z,96873.84
2023-08-17T20:15:03.831Z,96875.41
2023-08-17T20:17:31.639Z,96873.84
2023-08-17T20:19:59.594Z,96875.78
2023-08-17T20:22:27.194Z,96870.34
2023-08-17T20:24:54.879Z,96885.84
2023-08-17T20:27:22.722Z,96887.78
2023-08-17T20:29:51.643Z,96892.44
2023-08-17T20:32:19.520Z,96888.19
2023-08-17T20:34:47.151Z,96885.50
2023-08-17T20:37:14.711Z,96884.31
2023-08-17T20:39:42.364Z,96892.44
2023-08-17T20:42:10.882Z,96886.25
2023-08-17T20:44:38.591Z,96895.50
2023-08-17T20:47:09.748Z,96885.44
2023-08-17T20:49:38.306Z,96892.78
2023-08-17T20:52:06.047Z,96894.69
2023-08-17T20:54:33.795Z,96888.91
2023-08-17T20:57:01.358Z,96885.47
2023-08-17T20:59:28.914Z,96877.72
2023-08-17T21:01:56.468Z,96881.56
2023-08-17T21:04:25.811Z,96892.38
2023-08-17T21:06:53.374Z,96890.03
2023-08-17T21:09:21.956Z,96887.38
2023-08-17T21:11:49.596Z,96894.31
2023-08-17T21:14:17.142Z,96890.78
2023-08-17T21:16:44.689Z,96882.28
2023-08-17T21:19:12.363Z,96890.38
2023-08-17T21:21:41.271Z,96895.03
2023-08-17T21:24:08.892Z,96884.59
2023-08-17T21:26:36.572Z,96899.25
2023-08-17T21:29:04.428Z,96903.06
2023-08-17T21:31:32.596Z,96896.09
2023-08-17T21:34:00.513Z,96894.13
2023-08-17T21:36:28.101Z,96893.69
2023-08-17T21:38:58.383Z,96896.38
2023-08-17T21:41:26.041Z,96903.31
2023-08-17T21:43:54.197Z,96905.97
2023-08-17T21:46:21.927Z,96910.63
2023-08-17T21:48:49.629Z,96905.22
2023-08-17T21:51:17.200Z,96909.81
2023-08-17T21:53:44.787Z,96907.84
2023-08-17T21:56:14.799Z,96902.81
2023-08-17T21:58:42.437Z,96907.41
2023-08-17T22:01:10.215Z,96905.50
2023-08-17T22:03:37.928Z,96908.97
2023-08-17T22:06:06.966Z,96908.97
2023-08-17T22:08:34.728Z,96912.09
2023-08-17T22:11:02.335Z,96913.63
2023-08-17T22:13:31.290Z,96923.22
2023-08-17T22:15:58.936Z,96927.06
2023-08-17T22:18:26.773Z,96923.63
2023-08-17T22:20:54.365Z,96930.59
2023-08-17T22:23:22.213Z,96923.59
2023-08-17T22:25:49.798Z,96920.47
2023-08-17T22:28:17.384Z,96921.19
2023-08-17T22:30:46.339Z,96923.56
2023-08-17T22:33:13.967Z,96916.63
2023-08-17T22:35:41.549Z,96919.28
2023-08-17T22:38:09.131Z,96919.25
2023-08-17T22:40:36.759Z,96924.66
2023-08-17T22:43:04.460Z,96918.44
2023-08-17T22:45:32.076Z,96915.69
2023-08-17T22:48:01.062Z,96919.88
2023-08-17T22:50:28.687Z,96916.00
2023-08-17T22:52:56.316Z,96915.66
2023-08-17T22:55:24.297Z,96910.09
2023-08-17T22:57:51.969Z,96908.94
2023-08-17T23:00:20.419Z,96906.56
2023-08-17T23:02:48.282Z,96902.25
2023-08-17T23:05:17.740Z,96894.91
2023-08-17T23:07:45.341Z,96894.47
2023-08-17T23:10:12.978Z,96894.09
2023-08-17T23:12:40.536Z,96890.25
2023-08-17T23:15:08.691Z,96886.38
2023-08-17T23:17:36.446Z,96882.91
2023-08-17T23:20:04.652Z,96887.13
2023-08-17T23:22:33.630Z,96880.66
2023-08-17T23:25:01.224Z,96885.66
2023-08-17T23:27:29.035Z,96881.75
2023-08-17T23:29:56.942Z,96889.38
2023-08-17T23:32:28.309Z,96883.94
2023-08-17T23:34:56.644Z,96871.97
2023-08-17T23:37:24.417Z,96879.66
2023-08-17T23:39:53.414Z,96868.06
2023-08-17T23:42:21.371Z,96872.66
2023-08-17T23:44:48.944Z,96884.97
2023-08-17T23:47:16.536Z,96875.38
2023-08-17T23:49:45.496Z,96873.94
2023-08-17T23:52:13.176Z,96879.75
2023-08-17T23:54:40.750Z,96875.13
2023-08-17T23:57:09.677Z,96876.56
2023-08-17T23:59:37.239Z,96873.78
